Time;durP1;ratioP1;P1;durP2;ratioP2;P2;SDS_P1;SDS_P2;PMS_P1;PMS_P2;Temp;Humidity;BMP_temperature;BMP_pressure;BME280_temperature;BME280_humidity;BME280_pressure;Samples;Min_cycle;Max_cycle;Signal;HPM_P1;HPM_P2
2022/09/19 00:01:26;;;;;;;13.88;2.60;;;12.90;99.90;;;;;;4981875;28;20038;-60
2022/09/19 00:04:04;;;;;;;19.73;2.40;;;12.90;99.90;;;;;;4997084;28;20050;-62
2022/09/19 00:06:32;;;;;;;12.77;2.47;;;12.90;99.90;;;;;;4983562;28;20031;-60
2022/09/19 00:08:59;;;;;;;19.92;3.50;;;12.90;99.90;;;;;;4984079;28;20480;-61
2022/09/19 00:11:26;;;;;;;14.52;3.03;;;12.90;99.90;;;;;;4984335;28;20042;-61
2022/09/19 00:13:53;;;;;;;14.55;2.10;;;12.90;99.90;;;;;;4978300;28;20060;-62
2022/09/19 00:16:24;;;;;;;16.70;3.13;;;12.90;99.90;;;;;;4982300;28;20125;-62
2022/09/19 00:18:51;;;;;;;15.30;2.63;;;12.90;99.90;;;;;;4979012;28;20038;-61
2022/09/19 00:21:23;;;;;;;12.02;2.30;;;12.90;99.90;;;;;;4988602;28;20046;-60
2022/09/19 00:26:35;;;;;;;10.30;1.85;;;12.80;99.90;;;;;;5000925;28;20054;-61
2022/09/19 00:29:02;;;;;;;9.43;2.10;;;12.80;99.90;;;;;;4978658;28;20053;-60
2022/09/19 00:31:28;;;;;;;11.80;2.08;;;12.80;99.90;;;;;;4985857;28;20049;-62
2022/09/19 00:33:54;;;;;;;17.10;3.13;;;12.80;99.90;;;;;;4980406;28;20054;-61
2022/09/19 00:36:20;;;;;;;13.07;2.17;;;12.80;99.90;;;;;;4985546;28;20085;-61
2022/09/19 00:38:46;;;;;;;15.55;2.40;;;12.80;99.90;;;;;;4984453;28;20038;-62
2022/09/19 00:41:18;;;;;;;12.80;2.03;;;12.80;99.90;;;;;;4981918;28;20872;-63
2022/09/19 00:44:13;;;;;;;16.75;2.65;;;12.80;99.90;;;;;;4981598;28;20382;-62
2022/09/19 00:46:39;;;;;;;19.00;2.60;;;12.80;99.90;;;;;;4951167;28;20057;-60
2022/09/19 00:49:13;;;;;;;13.57;2.30;;;12.80;99.90;;;;;;4982339;28;20121;-61
2022/09/19 00:51:47;;;;;;;13.23;2.33;;;12.80;99.90;;;;;;4977736;28;20034;-61
2022/09/19 00:54:17;;;;;;;16.13;2.80;;;12.80;99.90;;;;;;4978382;28;20098;-62
2022/09/19 00:56:51;;;;;;;17.90;3.33;;;12.80;99.90;;;;;;4997794;28;20053;-62
2022/09/19 00:59:18;;;;;;;11.05;2.33;;;12.80;99.90;;;;;;4981428;28;20400;-62
2022/09/19 01:01:45;;;;;;;17.95;2.72;;;12.80;99.90;;;;;;4981309;28;20058;-61
2022/09/19 01:04:20;;;;;;;14.18;2.33;;;12.80;99.90;;;;;;4986722;28;20104;-62
2022/09/19 01:07:00;;;;;;;18.52;3.22;;;12.80;99.90;;;;;;4984002;28;20070;-61
2022/09/19 01:09:42;;;;;;;16.02;2.97;;;12.80;99.90;;;;;;5002121;28;20125;-62
2022/09/19 01:12:16;;;;;;;9.88;2.15;;;12.80;99.90;;;;;;4985700;28;20089;-61
2022/09/19 01:15:14;;;;;;;14.27;2.35;;;12.80;99.90;;;;;;4984382;28;21600;-62
2022/09/19 01:17:49;;;;;;;13.63;2.55;;;12.80;99.90;;;;;;4979341;28;20060;-62
2022/09/19 01:20:36;;;;;;;20.95;4.43;;;12.80;99.90;;;;;;4979978;28;20062;-62
2022/09/19 01:23:40;;;;;;;18.65;3.28;;;12.90;99.90;;;;;;4982215;28;20528;-61
2022/09/19 01:26:37;;;;;;;16.38;2.67;;;12.90;99.90;;;;;;4979707;28;20113;-61
2022/09/19 01:29:13;;;;;;;22.35;4.38;;;12.90;99.90;;;;;;4983587;28;20073;-61
2022/09/19 01:31:45;;;;;;;22.58;4.25;;;13.00;99.90;;;;;;4979333;28;20042;-62
2022/09/19 01:34:34;;;;;;;22.58;3.97;;;13.00;99.90;;;;;;4984653;28;20197;-62
2022/09/19 01:37:16;;;;;;;19.55;3.30;;;13.00;99.90;;;;;;4981413;28;20136;-61
2022/09/19 01:39:48;;;;;;;22.27;3.78;;;13.00;99.90;;;;;;4979958;28;20048;-61
2022/09/19 01:42:18;;;;;;;16.65;2.90;;;13.00;99.90;;;;;;4981602;28;20046;-61
2022/09/19 01:44:44;;;;;;;13.43;2.30;;;13.00;99.90;;;;;;4982845;28;20064;-61
2022/09/19 01:47:31;;;;;;;18.00;3.67;;;13.00;99.90;;;;;;4982111;28;20034;-61
2022/09/19 01:50:09;;;;;;;18.17;3.22;;;13.00;99.90;;;;;;4984025;28;20482;-61
2022/09/19 01:52:40;;;;;;;16.50;3.30;;;13.00;99.90;;;;;;4983086;28;20093;-61
2022/09/19 01:55:27;;;;;;;21.02;3.80;;;13.10;99.90;;;;;;4978667;28;20073;-61
2022/09/19 01:58:18;;;;;;;19.83;4.68;;;13.10;99.90;;;;;;4980710;28;20512;-61
2022/09/19 02:01:05;;;;;;;10.25;2.60;;;13.10;99.90;;;;;;4980771;28;20057;-62
2022/09/19 02:03:52;;;;;;;16.17;2.35;;;13.10;99.90;;;;;;4981329;28;20046;-61
2022/09/19 02:06:37;;;;;;;10.68;2.92;;;13.10;99.90;;;;;;4982651;28;20038;-61
2022/09/19 02:09:14;;;;;;;17.67;3.28;;;13.10;99.90;;;;;;4975675;28;20179;-61
2022/09/19 02:11:42;;;;;;;14.52;2.60;;;13.00;99.90;;;;;;4978712;28;20039;-62
2022/09/19 02:14:16;;;;;;;22.52;4.15;;;13.00;99.90;;;;;;4978602;28;20065;-62
2022/09/19 02:17:06;;;;;;;17.65;3.13;;;13.00;99.90;;;;;;4984369;28;20045;-61
2022/09/19 02:19:47;;;;;;;12.32;2.40;;;12.90;99.90;;;;;;4983132;28;20046;-60
2022/09/19 02:22:24;;;;;;;15.02;3.03;;;12.90;99.90;;;;;;4981247;28;20042;-60
2022/09/19 02:24:58;;;;;;;11.52;2.92;;;13.00;99.90;;;;;;4979205;28;20516;-61
2022/09/19 02:27:29;;;;;;;18.58;2.92;;;12.90;99.90;;;;;;4993898;28;21071;-60
2022/09/19 02:30:08;;;;;;;16.25;2.58;;;12.90;99.90;;;;;;4980302;28;20106;-60
2022/09/19 02:32:35;;;;;;;14.52;3.42;;;12.90;99.90;;;;;;4979572;28;20386;-60
2022/09/19 02:35:02;;;;;;;14.73;2.80;;;12.90;99.90;;;;;;4982294;28;20042;-61
2022/09/19 02:37:54;;;;;;;16.30;3.53;;;12.90;99.90;;;;;;4979866;28;20133;-61
2022/09/19 02:40:39;;;;;;;15.35;2.88;;;12.80;99.90;;;;;;4981755;28;20057;-61
2022/09/19 02:43:25;;;;;;;12.68;2.80;;;12.90;99.90;;;;;;4978946;28;20121;-61
2022/09/19 02:45:55;;;;;;;11.13;2.08;;;12.90;99.90;;;;;;4984306;28;20489;-61
2022/09/19 02:48:37;;;;;;;18.35;3.42;;;12.90;99.90;;;;;;4977828;28;20068;-61
2022/09/19 02:51:09;;;;;;;24.23;3.15;;;12.90;99.90;;;;;;4985759;28;20109;-62
2022/09/19 02:53:42;;;;;;;13.88;2.80;;;12.90;99.90;;;;;;4983615;28;20049;-60
2022/09/19 02:56:14;;;;;;;14.83;2.83;;;12.90;99.90;;;;;;4982778;28;20156;-61
2022/09/19 02:58:56;;;;;;;17.90;3.17;;;12.90;99.90;;;;;;4970545;28;20803;-61
2022/09/19 03:01:25;;;;;;;12.63;2.63;;;12.90;99.90;;;;;;4981144;28;20413;-61
2022/09/19 03:04:14;;;;;;;14.38;2.90;;;12.90;99.90;;;;;;4981640;28;20078;-61
2022/09/19 03:06:49;;;;;;;16.83;3.03;;;12.90;99.90;;;;;;4981796;28;20042;-61
2022/09/19 03:09:19;;;;;;;16.20;2.92;;;12.90;99.90;;;;;;4978968;28;20038;-61
2022/09/19 03:11:52;;;;;;;15.20;2.55;;;12.90;99.90;;;;;;4978998;28;20445;-61
2022/09/19 03:14:18;;;;;;;9.77;2.50;;;12.90;99.90;;;;;;4978775;28;20416;-61
2022/09/19 03:16:47;;;;;;;17.45;2.90;;;12.90;99.90;;;;;;4975507;28;20781;-60
2022/09/19 03:19:14;;;;;;;14.85;2.70;;;12.90;99.90;;;;;;4980355;28;20097;-61
2022/09/19 03:21:41;;;;;;;22.38;3.47;;;12.90;99.90;;;;;;4982955;28;20046;-62
2022/09/19 03:24:08;;;;;;;15.52;2.78;;;12.80;99.90;;;;;;4980102;28;20056;-61
2022/09/19 03:26:36;;;;;;;13.38;2.15;;;12.80;99.90;;;;;;4981750;28;20080;-61
2022/09/19 03:29:06;;;;;;;21.35;3.08;;;12.80;99.90;;;;;;4979903;28;20042;-62
2022/09/19 03:31:32;;;;;;;12.48;2.80;;;12.80;99.90;;;;;;4981818;28;20409;-61
2022/09/19 03:33:57;;;;;;;13.88;2.75;;;12.80;99.90;;;;;;4976400;28;20054;-62
2022/09/19 03:36:33;;;;;;;14.30;2.30;;;12.80;99.90;;;;;;4979788;28;20425;-61
2022/09/19 03:39:01;;;;;;;12.50;2.17;;;12.70;99.90;;;;;;4982339;28;20644;-61
2022/09/19 03:41:27;;;;;;;12.45;2.45;;;12.80;99.90;;;;;;4980243;28;20077;-61
2022/09/19 03:43:53;;;;;;;18.25;2.30;;;12.80;99.90;;;;;;4981789;28;20184;-61
2022/09/19 03:46:20;;;;;;;15.63;2.53;;;12.80;99.90;;;;;;4968348;28;20035;-60
2022/09/19 03:48:46;;;;;;;12.80;2.60;;;12.90;99.90;;;;;;4997345;28;20054;-62
2022/09/19 03:51:14;;;;;;;10.52;2.00;;;12.90;99.90;;;;;;4979495;28;20047;-61
2022/09/19 03:53:42;;;;;;;13.15;2.20;;;12.90;99.90;;;;;;4986222;28;20513;-61
2022/09/19 03:56:09;;;;;;;14.80;2.38;;;12.90;99.90;;;;;;4984957;28;20514;-61
2022/09/19 03:58:35;;;;;;;17.33;2.42;;;12.90;99.90;;;;;;4985998;28;20326;-61
2022/09/19 04:01:01;;;;;;;14.75;2.08;;;12.90;99.90;;;;;;4981727;28;20038;-62
2022/09/19 04:03:27;;;;;;;18.67;2.70;;;12.90;99.90;;;;;;4985075;28;20050;-61
2022/09/19 04:05:53;;;;;;;11.10;2.05;;;12.90;99.90;;;;;;4983715;28;20085;-61
2022/09/19 04:08:20;;;;;;;11.10;1.77;;;12.90;99.90;;;;;;4981657;28;20046;-60
2022/09/19 04:10:46;;;;;;;12.20;1.77;;;12.90;99.90;;;;;;4979557;28;20038;-61
2022/09/19 04:13:12;;;;;;;16.33;2.50;;;12.90;99.90;;;;;;4980439;28;20061;-61
2022/09/19 04:15:38;;;;;;;12.48;2.03;;;12.90;99.90;;;;;;4985103;28;20400;-60
2022/09/19 04:18:05;;;;;;;15.73;2.22;;;12.90;99.90;;;;;;4975040;28;20073;-61
2022/09/19 04:20:31;;;;;;;12.40;1.98;;;12.90;99.90;;;;;;4986800;28;20073;-61
2022/09/19 04:23:02;;;;;;;14.00;2.00;;;12.90;99.90;;;;;;4983143;28;20042;-61
2022/09/19 04:25:34;;;;;;;14.02;2.22;;;12.90;99.90;;;;;;4984074;28;20042;-62
2022/09/19 04:28:05;;;;;;;12.45;2.15;;;12.90;99.90;;;;;;4982792;28;20042;-62
2022/09/19 04:30:36;;;;;;;18.25;3.13;;;12.90;99.90;;;;;;4981264;28;20042;-61
2022/09/19 04:33:04;;;;;;;14.60;2.78;;;12.90;99.90;;;;;;4984953;28;20050;-61
2022/09/19 04:35:34;;;;;;;15.70;2.35;;;12.90;99.90;;;;;;4982465;28;20040;-62
2022/09/19 04:38:02;;;;;;;8.45;1.55;;;13.00;99.90;;;;;;4979138;28;20096;-61
2022/09/19 04:40:28;;;;;;;13.68;2.95;;;13.00;99.90;;;;;;4984726;28;20050;-61
2022/09/19 04:42:54;;;;;;;11.35;2.05;;;13.10;99.90;;;;;;4953646;28;20054;-62
2022/09/19 04:45:20;;;;;;;10.85;2.10;;;13.00;99.90;;;;;;5001797;28;20397;-62
2022/09/19 04:47:47;;;;;;;11.18;2.17;;;13.10;99.90;;;;;;4979841;28;20110;-61
2022/09/19 04:50:14;;;;;;;12.85;1.80;;;13.10;99.90;;;;;;4985255;28;20402;-61
2022/09/19 04:52:41;;;;;;;10.30;1.80;;;13.00;99.90;;;;;;4983829;28;20056;-60
2022/09/19 04:55:08;;;;;;;10.63;1.73;;;13.00;99.90;;;;;;4984058;28;20050;-61
2022/09/19 04:57:34;;;;;;;12.15;1.77;;;13.10;99.90;;;;;;4984045;28;20046;-62
2022/09/19 04:59:59;;;;;;;11.05;1.80;;;13.10;99.90;;;;;;4987701;28;20084;-62
2022/09/19 05:02:28;;;;;;;14.55;2.08;;;13.10;99.90;;;;;;4980672;28;20050;-62
2022/09/19 05:04:55;;;;;;;11.35;2.15;;;13.10;99.90;;;;;;4983984;28;20078;-61
2022/09/19 05:07:21;;;;;;;12.50;2.13;;;13.10;99.90;;;;;;4988323;28;20050;-61
2022/09/19 05:09:46;;;;;;;12.55;2.83;;;13.10;99.90;;;;;;4978019;28;20490;-62
2022/09/19 05:12:12;;;;;;;10.10;1.75;;;13.10;99.90;;;;;;4977302;28;20093;-61
2022/09/19 05:14:38;;;;;;;7.78;1.77;;;13.10;99.90;;;;;;4998165;28;20081;-61
2022/09/19 05:17:04;;;;;;;15.70;2.95;;;13.10;99.90;;;;;;4982205;28;20042;-62
2022/09/19 05:19:32;;;;;;;12.13;2.53;;;13.10;99.90;;;;;;4979048;28;20039;-61
2022/09/19 05:21:58;;;;;;;6.40;1.25;;;13.10;99.90;;;;;;4995900;28;20049;-61
2022/09/19 05:24:23;;;;;;;12.50;1.85;;;13.10;99.90;;;;;;4975302;28;22780;-61
2022/09/19 05:26:49;;;;;;;10.32;2.20;;;13.10;99.90;;;;;;4995259;28;20474;-60
2022/09/19 05:29:15;;;;;;;11.57;1.75;;;13.00;99.90;;;;;;4998300;28;20065;-61
2022/09/19 05:31:44;;;;;;;9.48;1.92;;;13.10;99.90;;;;;;4967471;28;20128;-60
2022/09/19 05:34:13;;;;;;;8.57;1.80;;;13.10;99.90;;;;;;4984075;28;20038;-62
2022/09/19 05:36:39;;;;;;;7.13;1.52;;;13.10;99.90;;;;;;4979976;28;20045;-62
2022/09/19 05:39:06;;;;;;;9.90;1.80;;;13.10;99.90;;;;;;4986714;28;20046;-62
2022/09/19 05:41:32;;;;;;;13.70;2.00;;;13.10;99.90;;;;;;4979659;28;20338;-61
2022/09/19 05:43:58;;;;;;;17.13;2.70;;;13.10;99.90;;;;;;4980832;28;20050;-61
2022/09/19 05:46:24;;;;;;;11.23;1.90;;;13.10;99.90;;;;;;4977918;28;20050;-61
2022/09/19 05:48:50;;;;;;;11.40;1.55;;;13.20;99.90;;;;;;4981888;28;20069;-60
2022/09/19 05:51:16;;;;;;;14.73;2.72;;;13.20;99.90;;;;;;4978404;28;20037;-61
2022/09/19 05:53:55;;;;;;;8.35;1.50;;;13.20;99.90;;;;;;4979180;28;20053;-61
2022/09/19 05:56:22;;;;;;;12.20;2.60;;;13.20;99.90;;;;;;4976912;28;20038;-61
2022/09/19 05:58:50;;;;;;;9.10;1.65;;;13.20;99.90;;;;;;4995227;28;20039;-61
2022/09/19 06:01:16;;;;;;;9.45;2.28;;;13.20;99.90;;;;;;4977165;28;20034;-61
2022/09/19 06:03:42;;;;;;;15.13;2.13;;;13.20;99.90;;;;;;4981895;28;20041;-61
2022/09/19 06:06:11;;;;;;;12.80;2.55;;;13.10;99.90;;;;;;4982837;28;20422;-61
2022/09/19 06:08:38;;;;;;;14.95;2.05;;;13.20;99.90;;;;;;4993121;28;20117;-61
2022/09/19 06:11:05;;;;;;;12.75;2.38;;;13.20;99.90;;;;;;4997490;28;20038;-62
2022/09/19 06:14:18;;;;;;;13.40;2.28;;;13.20;99.90;;;;;;4981209;28;20050;-61
2022/09/19 06:16:20;;;;;;;15.68;2.92;;;13.20;99.90;;;;;;4950297;28;20051;-61
2022/09/19 06:18:46;;;;;;;14.15;2.28;;;13.20;99.90;;;;;;4981787;28;20054;-61
2022/09/19 06:21:12;;;;;;;11.27;2.33;;;13.20;99.90;;;;;;4994475;23;20071;-59
2022/09/19 06:23:42;;;;;;;10.65;1.92;;;13.20;99.90;;;;;;4968881;28;20465;-60
2022/09/19 06:26:08;;;;;;;10.52;2.45;;;13.20;99.90;;;;;;4989063;28;20061;-58
2022/09/19 06:28:34;;;;;;;11.55;2.67;;;13.20;99.90;;;;;;4965837;28;20043;-59
2022/09/19 06:31:04;;;;;;;12.38;2.25;;;13.00;99.90;;;;;;4974330;28;20053;-61
2022/09/19 06:33:31;;;;;;;13.82;2.72;;;13.20;99.90;;;;;;4963612;28;20047;-60
2022/09/19 06:35:59;;;;;;;14.15;2.20;;;13.30;99.90;;;;;;4948521;28;20049;-60
2022/09/19 06:38:25;;;;;;;14.50;2.70;;;13.30;99.90;;;;;;4976322;28;20053;-59
2022/09/19 06:40:51;;;;;;;10.52;2.03;;;13.40;99.90;;;;;;4980546;28;20046;-60
2022/09/19 06:43:18;;;;;;;11.98;2.13;;;13.50;99.90;;;;;;4938605;28;20498;-59
2022/09/19 06:45:44;;;;;;;11.27;2.75;;;13.70;99.90;;;;;;4956985;28;20581;-60
2022/09/19 06:48:09;;;;;;;11.20;2.20;;;13.70;99.90;;;;;;4969143;28;20478;-58
2022/09/19 06:50:36;;;;;;;12.77;2.60;;;13.80;99.90;;;;;;4974872;28;20031;-59
2022/09/19 06:53:02;;;;;;;14.55;2.20;;;13.70;99.90;;;;;;4979996;28;20479;-59
2022/09/19 06:55:29;;;;;;;12.95;2.53;;;13.80;99.90;;;;;;4978558;28;20046;-60
2022/09/19 06:57:58;;;;;;;14.20;2.05;;;13.80;99.90;;;;;;4976279;28;20034;-61
2022/09/19 07:00:25;;;;;;;7.80;2.00;;;13.80;99.90;;;;;;4995948;28;20121;-61
2022/09/19 07:02:54;;;;;;;11.77;1.90;;;13.80;99.90;;;;;;4978038;28;20052;-61
2022/09/19 07:05:20;;;;;;;17.10;1.80;;;13.80;99.90;;;;;;4979390;28;20036;-61
2022/09/19 07:07:46;;;;;;;13.48;2.03;;;13.90;99.90;;;;;;4970357;28;20043;-61
2022/09/19 07:10:12;;;;;;;13.50;2.53;;;14.00;99.90;;;;;;4966150;28;20046;-60
2022/09/19 07:12:37;;;;;;;15.23;2.28;;;14.10;99.90;;;;;;4995264;28;20049;-61
2022/09/19 07:15:03;;;;;;;12.57;2.03;;;14.20;99.90;;;;;;4981723;28;20041;-61
2022/09/19 07:17:29;;;;;;;10.18;2.22;;;14.30;99.90;;;;;;4976975;28;20130;-61
2022/09/19 07:19:55;;;;;;;10.57;2.13;;;14.40;99.90;;;;;;4978352;28;20545;-60
2022/09/19 07:22:21;;;;;;;14.80;2.40;;;14.50;99.90;;;;;;4978152;28;21600;-61
2022/09/19 07:24:46;;;;;;;9.90;1.90;;;14.60;99.90;;;;;;4981342;28;20287;-60
2022/09/19 07:27:12;;;;;;;13.30;2.35;;;14.70;99.90;;;;;;4974709;28;20494;-61
2022/09/19 07:29:38;;;;;;;11.05;2.22;;;14.80;99.90;;;;;;4984038;28;20088;-60
2022/09/19 07:32:04;;;;;;;11.27;2.28;;;14.90;99.90;;;;;;4979571;28;20034;-59
2022/09/19 07:34:31;;;;;;;14.02;2.55;;;14.90;99.90;;;;;;4981420;28;20078;-59
2022/09/19 07:36:56;;;;;;;13.27;2.97;;;14.80;99.90;;;;;;4984167;28;20039;-60
2022/09/19 07:39:22;;;;;;;11.75;2.80;;;14.80;99.90;;;;;;4983115;28;20122;-61
2022/09/19 07:41:48;;;;;;;17.48;2.72;;;14.80;99.90;;;;;;4968178;28;20057;-60
2022/09/19 07:44:13;;;;;;;14.45;2.75;;;14.80;99.90;;;;;;4979624;28;20413;-61
2022/09/19 07:47:26;;;;;;;16.48;3.22;;;14.80;99.90;;;;;;4977533;28;20159;-61
2022/09/19 07:49:25;;;;;;;13.32;3.05;;;14.80;99.90;;;;;;4977881;28;20043;-60
2022/09/19 07:51:54;;;;;;;17.55;2.50;;;14.80;99.90;;;;;;4988072;28;20085;-61
2022/09/19 07:54:19;;;;;;;13.88;2.63;;;14.90;99.90;;;;;;5002502;28;20047;-61
2022/09/19 07:56:47;;;;;;;10.98;2.28;;;15.00;99.90;;;;;;4968861;28;20097;-61
2022/09/19 07:59:13;;;;;;;18.70;2.65;;;15.10;99.90;;;;;;4978962;28;20101;-61
2022/09/19 08:01:39;;;;;;;13.73;2.97;;;15.20;99.90;;;;;;4979692;28;20042;-61
2022/09/19 08:04:04;;;;;;;11.32;2.75;;;15.30;99.90;;;;;;4979578;28;20034;-61
2022/09/19 08:06:30;;;;;;;15.05;2.50;;;15.30;99.90;;;;;;4980151;28;20512;-60
2022/09/19 08:08:56;;;;;;;13.65;2.72;;;15.50;99.90;;;;;;5003290;28;20034;-60
2022/09/19 08:11:22;;;;;;;16.35;2.42;;;15.60;99.90;;;;;;4978348;28;20744;-60
2022/09/19 08:13:47;;;;;;;11.68;1.90;;;15.70;99.90;;;;;;4985867;28;20047;-60
2022/09/19 08:16:13;;;;;;;11.38;2.72;;;15.70;99.90;;;;;;4978153;28;20042;-60
2022/09/19 08:18:40;;;;;;;12.25;2.45;;;15.80;99.90;;;;;;4978649;28;20043;-60
2022/09/19 08:21:07;;;;;;;11.63;2.63;;;15.80;99.90;;;;;;4984514;28;20105;-60
2022/09/19 08:23:32;;;;;;;12.88;2.80;;;15.80;99.90;;;;;;4984865;28;20070;-60
2022/09/19 08:26:02;;;;;;;15.15;2.47;;;15.90;99.90;;;;;;4981052;28;20051;-61
2022/09/19 08:28:30;;;;;;;12.55;2.80;;;15.90;99.90;;;;;;4986902;28;20554;-60
2022/09/19 08:31:00;;;;;;;10.65;2.47;;;15.90;99.90;;;;;;4967541;28;20070;-60
2022/09/19 08:33:26;;;;;;;15.07;2.45;;;16.00;99.90;;;;;;4986903;28;20069;-59
2022/09/19 08:35:52;;;;;;;13.13;2.50;;;16.10;99.90;;;;;;4982603;28;20528;-60
2022/09/19 08:38:18;;;;;;;10.45;2.38;;;16.00;99.90;;;;;;4986542;28;20081;-59
2022/09/19 08:41:21;;;;;;;15.23;3.00;;;16.10;99.90;;;;;;4977336;28;20042;-59
2022/09/19 08:43:52;;;;;;;11.32;2.22;;;16.20;99.90;;;;;;4986483;28;20051;-60
2022/09/19 08:46:36;;;;;;;12.48;2.50;;;16.20;99.90;;;;;;4979350;28;20156;-59
2022/09/19 08:49:18;;;;;;;14.65;2.65;;;16.20;99.90;;;;;;4981959;28;20049;-59
2022/09/19 08:51:47;;;;;;;12.88;2.30;;;16.10;99.90;;;;;;4982627;28;20377;-60
2022/09/19 08:54:21;;;;;;;13.43;2.63;;;16.20;99.90;;;;;;4977488;28;20137;-60
2022/09/19 08:56:47;;;;;;;7.75;2.05;;;16.20;99.90;;;;;;4980585;28;20493;-60
2022/09/19 08:59:16;;;;;;;15.63;2.40;;;16.30;99.90;;;;;;4985259;28;20116;-60
2022/09/19 09:01:43;;;;;;;12.13;2.28;;;16.40;99.90;;;;;;4985990;28;20041;-61
2022/09/19 09:04:35;;;;;;;8.80;2.15;;;16.50;99.90;;;;;;4979748;28;20354;-60
2022/09/19 09:07:20;;;;;;;9.85;2.50;;;16.50;99.90;;;;;;4966804;28;20050;-61
2022/09/19 09:09:55;;;;;;;13.93;2.10;;;16.60;99.90;;;;;;4973712;28;20532;-59
2022/09/19 09:12:36;;;;;;;14.05;3.40;;;16.80;99.90;;;;;;4971380;28;20058;-61
2022/09/19 09:15:58;;;;;;;12.13;3.00;;;16.60;99.90;;;;;;4981288;28;20104;-59
2022/09/19 09:18:30;;;;;;;9.45;1.77;;;16.40;99.80;;;;;;4957309;28;20232;-60
2022/09/19 09:20:59;;;;;;;7.40;1.60;;;16.30;99.90;;;;;;4967568;28;20042;-60
2022/09/19 09:23:45;;;;;;;11.70;2.30;;;16.30;99.90;;;;;;4974863;28;20046;-58
2022/09/19 09:26:22;;;;;;;12.38;2.35;;;16.30;99.90;;;;;;4964675;28;20046;-61
2022/09/19 09:29:00;;;;;;;8.40;2.30;;;16.40;99.90;;;;;;4978844;28;20046;-61
2022/09/19 09:31:34;;;;;;;9.98;2.47;;;16.60;99.90;;;;;;4981434;28;20069;-60
2022/09/19 09:34:21;;;;;;;10.18;1.95;;;16.60;99.90;;;;;;4986545;28;20049;-60
2022/09/19 09:37:03;;;;;;;8.07;1.80;;;16.50;99.90;;;;;;4981662;28;20042;-60
2022/09/19 09:39:50;;;;;;;7.30;1.55;;;16.60;99.90;;;;;;4982933;28;20038;-60
2022/09/19 09:42:26;;;;;;;9.05;1.80;;;16.50;99.90;;;;;;4978724;28;20112;-60
2022/09/19 09:45:13;;;;;;;11.65;2.42;;;16.30;99.90;;;;;;4979653;28;20549;-60
2022/09/19 09:48:05;;;;;;;9.13;2.10;;;16.00;99.90;;;;;;4978011;28;20393;-59
2022/09/19 09:50:34;;;;;;;13.20;3.63;;;15.70;99.90;;;;;;4986040;28;20480;-60
2022/09/19 09:53:09;;;;;;;9.32;2.20;;;15.60;99.90;;;;;;4980973;28;20482;-59
2022/09/19 09:58:34;;;;;;;10.20;1.90;;;15.30;99.90;;;;;;4979512;28;20125;-60
2022/09/19 10:04:45;;;;;;;10.65;2.20;;;15.50;99.90;;;;;;4978031;28;20050;-60
2022/09/19 10:07:31;;;;;;;15.23;3.42;;;15.50;99.90;;;;;;4963025;28;20125;-60
2022/09/19 10:10:04;;;;;;;13.80;2.78;;;15.60;99.90;;;;;;4973325;28;20039;-61
2022/09/19 10:12:50;;;;;;;12.10;2.38;;;15.90;99.90;;;;;;4971448;28;20062;-60
2022/09/19 10:15:23;;;;;;;14.90;3.00;;;16.20;99.90;;;;;;4974018;28;20042;-60
2022/09/19 10:18:13;;;;;;;12.57;2.42;;;16.20;99.90;;;;;;4979509;28;20051;-61
2022/09/19 10:20:52;;;;;;;12.23;2.58;;;16.20;99.90;;;;;;4975910;28;20409;-61
2022/09/19 10:23:25;;;;;;;18.42;2.90;;;16.20;99.90;;;;;;4980249;28;20182;-61
2022/09/19 10:25:59;;;;;;;14.93;3.00;;;16.30;99.90;;;;;;4973838;28;20064;-61
2022/09/19 10:28:25;;;;;;;;;;;16.50;99.90;;;;;;4990291;28;20517;-60
2022/09/19 10:31:00;;;;;;;17.08;2.70;;;16.60;99.90;;;;;;4980260;28;19917;-60
2022/09/19 10:33:40;;;;;;;9.75;2.53;;;16.60;99.90;;;;;;4985160;28;20053;-61
2022/09/19 10:36:15;;;;;;;12.13;2.22;;;16.50;99.90;;;;;;4965014;28;20397;-61
2022/09/19 10:38:58;;;;;;;11.35;2.05;;;16.40;99.90;;;;;;4977481;28;20054;-61
2022/09/19 10:41:26;;;;;;;8.38;2.00;;;16.50;99.80;;;;;;4978117;28;20696;-61
2022/09/19 10:44:01;;;;;;;7.95;2.65;;;16.70;99.80;;;;;;4986298;28;20049;-61
2022/09/19 10:46:36;;;;;;;12.07;2.63;;;17.00;98.70;;;;;;4975209;28;20034;-61
2022/09/19 10:49:13;;;;;;;10.30;2.25;;;17.00;98.20;;;;;;4973059;28;20125;-61
2022/09/19 10:51:44;;;;;;;12.68;2.70;;;16.80;98.20;;;;;;4991498;28;20046;-61
2022/09/19 10:54:20;;;;;;;16.23;2.78;;;16.70;98.40;;;;;;4976914;28;20323;-61
2022/09/19 10:56:46;;;;;;;13.10;2.90;;;16.60;98.10;;;;;;4979269;28;20065;-61
2022/09/19 10:59:12;;;;;;;9.85;2.30;;;16.30;99.00;;;;;;4976056;28;20053;-60
2022/09/19 11:01:39;;;;;;;13.52;3.33;;;15.90;99.90;;;;;;4974334;28;20038;-61
2022/09/19 11:04:10;;;;;;;11.35;1.90;;;15.40;99.90;;;;;;4984456;28;20049;-60
2022/09/19 11:06:55;;;;;;;12.25;2.35;;;14.90;99.90;;;;;;4980368;28;20049;-61
2022/09/19 11:09:27;;;;;;;11.70;2.20;;;14.80;99.90;;;;;;4980967;28;20034;-61
2022/09/19 11:12:23;;;;;;;15.57;2.53;;;14.70;99.90;;;;;;4979976;28;20133;-61
2022/09/19 11:14:49;;;;;;;11.20;2.40;;;14.50;99.90;;;;;;4977206;28;20066;-61
2022/09/19 11:17:37;;;;;;;9.57;2.30;;;14.40;99.90;;;;;;4993591;28;20042;-60
2022/09/19 11:20:30;;;;;;;13.70;2.47;;;14.40;99.90;;;;;;4976156;28;20119;-61
2022/09/19 11:23:13;;;;;;;11.55;2.30;;;14.40;99.90;;;;;;4975700;28;20554;-61
2022/09/19 11:26:00;;;;;;;13.57;2.47;;;14.70;99.90;;;;;;4973445;28;20109;-61
2022/09/19 11:28:48;;;;;;;15.10;3.08;;;14.90;99.90;;;;;;4972082;28;20460;-60
2022/09/19 11:31:31;;;;;;;12.43;3.00;;;15.10;99.90;;;;;;4975173;28;20150;-61
2022/09/19 11:34:26;;;;;;;10.02;1.85;;;15.40;99.90;;;;;;4977125;28;20065;-60
2022/09/19 11:37:28;;;;;;;12.60;2.33;;;15.50;99.90;;;;;;4952434;28;20141;-60
2022/09/19 11:40:06;;;;;;;14.30;2.50;;;15.50;99.90;;;;;;4971124;28;20050;-61
2022/09/19 11:42:35;;;;;;;13.48;2.55;;;15.80;99.90;;;;;;4990023;28;20053;-62
2022/09/19 11:45:10;;;;;;;14.82;2.55;;;16.10;99.90;;;;;;4989503;28;20046;-60
2022/09/19 11:48:07;;;;;;;11.02;2.67;;;16.00;99.90;;;;;;4968795;28;20548;-61
2022/09/19 11:50:39;;;;;;;18.10;2.67;;;16.20;99.90;;;;;;4974871;28;20069;-61
2022/09/19 11:53:30;;;;;;;14.02;2.60;;;16.10;99.90;;;;;;4958446;28;20432;-61
2022/09/19 11:56:15;;;;;;;9.93;2.00;;;16.20;99.90;;;;;;4960561;28;20116;-60
2022/09/19 11:59:08;;;;;;;14.63;2.67;;;16.20;99.90;;;;;;4964550;28;20047;-61
2022/09/19 12:01:42;;;;;;;14.02;2.70;;;16.20;99.90;;;;;;4977354;28;20074;-60
2022/09/19 12:04:39;;;;;;;16.38;2.72;;;16.10;99.90;;;;;;4972628;28;20046;-59
2022/09/19 12:07:25;;;;;;;8.73;2.10;;;15.60;99.90;;;;;;4974855;28;20101;-61
2022/09/19 12:09:56;;;;;;;10.02;1.95;;;15.00;99.90;;;;;;4976226;28;20388;-61
2022/09/19 12:12:27;;;;;;;10.05;2.00;;;14.70;99.90;;;;;;4978654;28;20055;-62
2022/09/19 12:15:20;;;;;;;11.48;2.33;;;14.40;99.90;;;;;;4979897;28;20441;-61
2022/09/19 12:18:06;;;;;;;10.02;2.20;;;14.30;99.90;;;;;;4966386;28;20120;-61
2022/09/19 12:20:43;;;;;;;10.90;2.15;;;14.10;99.90;;;;;;4980038;28;20398;-60
2022/09/19 12:26:18;;;;;;;12.48;2.83;;;13.90;99.90;;;;;;5008739;28;20119;-81
2022/09/19 12:29:17;;;;;;;10.55;2.13;;;13.80;99.90;;;;;;5012274;28;20038;-82
2022/09/19 12:31:48;;;;;;;11.32;2.60;;;13.70;99.90;;;;;;4990142;28;20517;-82
2022/09/19 12:34:28;;;;;;;11.75;2.72;;;13.80;99.90;;;;;;4990375;28;20049;-81
2022/09/19 12:37:20;;;;;;;12.20;2.60;;;13.80;99.90;;;;;;4992183;28;20048;-82
2022/09/19 12:40:17;;;;;;;15.40;2.92;;;14.00;99.90;;;;;;4966805;28;20469;-82
2022/09/19 12:43:10;;;;;;;10.02;2.17;;;14.10;99.90;;;;;;4989555;28;20037;-82
2022/09/19 12:45:44;;;;;;;8.50;1.98;;;14.20;99.90;;;;;;4989398;28;20046;-82
2022/09/19 12:48:36;;;;;;;12.30;2.28;;;14.30;99.90;;;;;;4988334;28;20479;-82
2022/09/19 12:51:06;;;;;;;10.48;1.92;;;14.30;99.90;;;;;;4983416;28;20042;-82
2022/09/19 12:53:50;;;;;;;10.10;2.30;;;14.30;99.90;;;;;;4973754;28;20038;-81
2022/09/19 12:56:29;;;;;;;13.52;2.55;;;14.30;99.90;;;;;;4986557;28;20046;-82
2022/09/19 12:59:12;;;;;;;11.38;2.47;;;14.30;99.90;;;;;;4985135;28;20130;-82
2022/09/19 13:01:56;;;;;;;12.20;2.28;;;14.50;99.90;;;;;;4985147;28;20306;-82
2022/09/19 13:04:25;;;;;;;;;;;14.60;99.90;;;;;;4970004;28;20031;-81
2022/09/19 13:06:57;;;;;;;11.10;2.38;;;14.90;99.90;;;;;;4973607;28;20025;-82
2022/09/19 13:09:37;;;;;;;13.10;2.45;;;15.20;99.90;;;;;;4988502;28;20426;-82
2022/09/19 13:12:15;;;;;;;13.05;2.60;;;15.60;99.90;;;;;;4984500;28;20497;-82
2022/09/19 13:14:56;;;;;;;13.95;3.00;;;15.80;99.90;;;;;;4983459;28;20577;-82
2022/09/19 13:23:35;;;;;;;16.42;2.80;;;16.60;99.90;;;;;;4986614;28;20392;-82
2022/09/19 13:26:16;;;;;;;14.10;3.15;;;16.70;99.90;;;;;;4981695;28;20046;-82
2022/09/19 13:28:53;;;;;;;18.17;4.07;;;16.70;99.90;;;;;;4987408;28;20270;-81